Robertson, Missouri
Current Conditions -  °F | °C
As of 10:51 PM on Tuesday 25 Nov 2014 (Local Time) from KSTL Reporting Station
Few Clouds Few Clouds  
Wind Chill: 23°   Ceiling: Unl
Heat Index: 28°   Visibility: 10mi
Dew Point: 21°   Wind: 5mph
Humidity: 75%   Direction: 120°ESE
Pressure: 30.17"   Gusts: NA
Location:  38.7849°N, 90.3852°W
Report Text: KSTL 260451Z 12004KT 10SM FEW250 M02/M06 A3017 RMK AO2 SLP227 T10221061
Loading
Personal Weather Stations






























Interactive Weather Map New forecast layout! Learn more

10-Day Weather Forecast

Advertisements
Track Severe Weather on mobile